Time;durP1;ratioP1;P1;durP2;ratioP2;P2;SDS_P1;SDS_P2;PMS_P1;PMS_P2;Temp;Humidity;BMP_temperature;BMP_pressure;BME280_temperature;BME280_humidity;BME280_pressure;Samples;Min_cycle;Max_cycle;Signal;HPM_P1;HPM_P2
2021/09/05 00:00:53;;;;;;;12.73;11.33;;;;;;;;;;5056841;28;20238;-77
2021/09/05 00:03:20;;;;;;;12.63;11.33;;;;;;;;;;5054398;28;20668;-77
2021/09/05 00:05:49;;;;;;;12.90;11.07;;;;;;;;;;5052038;28;20286;-77
2021/09/05 00:08:16;;;;;;;12.63;11.33;;;;;;;;;;5059582;28;20232;-77
2021/09/05 00:10:43;;;;;;;12.00;10.80;;;;;;;;;;5069979;28;20286;-77
2021/09/05 00:13:10;;;;;;;12.43;11.13;;;;;;;;;;5056708;28;20282;-77
2021/09/05 00:15:38;;;;;;;13.50;10.67;;;;;;;;;;5062961;28;20282;-77
2021/09/05 00:18:05;;;;;;;11.50;10.30;;;;;;;;;;5061058;28;20302;-77
2021/09/05 00:20:33;;;;;;;15.40;11.17;;;;;;;;;;5071150;28;20238;-77
2021/09/05 00:23:03;;;;;;;12.17;10.70;;;;;;;;;;5057374;28;20254;-77
2021/09/05 00:25:31;;;;;;;12.33;10.47;;;;;;;;;;5053707;28;20196;-77
2021/09/05 00:27:59;;;;;;;11.27;10.20;;;;;;;;;;5054910;28;20195;-77
2021/09/05 00:30:26;;;;;;;10.67;9.67;;;;;;;;;;5070600;28;20742;-77
2021/09/05 00:32:54;;;;;;;11.97;9.87;;;;;;;;;;5064863;28;20287;-77
2021/09/05 00:35:21;;;;;;;11.97;10.40;;;;;;;;;;5065440;28;20226;-77
2021/09/05 00:37:48;;;;;;;12.63;11.20;;;;;;;;;;5056121;28;20223;-77
2021/09/05 00:40:17;;;;;;;12.67;11.37;;;;;;;;;;5055009;28;20230;-77
2021/09/05 00:42:44;;;;;;;11.60;10.10;;;;;;;;;;5061074;28;20250;-77
2021/09/05 00:45:12;;;;;;;12.43;11.13;;;;;;;;;;5054830;28;20656;-77
2021/09/05 00:47:39;;;;;;;13.53;11.00;;;;;;;;;;5064622;28;20234;-77
2021/09/05 00:50:07;;;;;;;12.00;10.87;;;;;;;;;;5066206;28;20192;-77
2021/09/05 00:52:34;;;;;;;12.30;11.00;;;;;;;;;;5055676;28;20282;-77
2021/09/05 00:55:01;;;;;;;12.40;11.20;;;;;;;;;;5073492;28;20321;-77
2021/09/05 00:57:31;;;;;;;12.87;10.57;;;;;;;;;;5062379;28;20306;-77
2021/09/05 00:59:58;;;;;;;13.47;12.03;;;;;;;;;;5061499;28;20694;-77
2021/09/05 01:02:25;;;;;;;13.57;12.17;;;;;;;;;;5062312;28;20302;-77
2021/09/05 01:04:52;;;;;;;12.57;10.90;;;;;;;;;;5068183;28;20322;-77
2021/09/05 01:07:20;;;;;;;12.40;11.20;;;;;;;;;;5073230;28;20281;-77
2021/09/05 01:09:47;;;;;;;13.53;11.70;;;;;;;;;;5074056;28;20199;-77
2021/09/05 01:12:14;;;;;;;12.77;11.47;;;;;;;;;;5056938;28;20642;-76
2021/09/05 01:14:43;;;;;;;13.57;11.70;;;;;;;;;;5058169;28;20215;-76
2021/09/05 01:17:12;;;;;;;12.10;10.90;;;;;;;;;;5057576;28;20291;-77
2021/09/05 01:19:39;;;;;;;13.63;12.33;;;;;;;;;;5064726;28;20202;-77
2021/09/05 01:22:07;;;;;;;13.63;12.30;;;;;;;;;;5064672;28;20694;-77
2021/09/05 01:24:34;;;;;;;12.97;11.33;;;;;;;;;;5061549;28;20264;-77
2021/09/05 01:27:03;;;;;;;12.70;11.37;;;;;;;;;;5060055;28;20291;-77
2021/09/05 01:29:30;;;;;;;12.37;11.17;;;;;;;;;;5057753;28;20325;-76
2021/09/05 01:31:59;;;;;;;12.50;11.20;;;;;;;;;;5062961;28;20241;-77
2021/09/05 01:34:27;;;;;;;14.90;11.40;;;;;;;;;;5061600;28;20204;-77
2021/09/05 01:36:55;;;;;;;13.17;11.57;;;;;;;;;;5054730;28;20227;-76
2021/09/05 01:39:23;;;;;;;14.57;12.93;;;;;;;;;;5067878;28;20314;-76
2021/09/05 01:41:50;;;;;;;16.53;12.20;;;;;;;;;;5054178;28;20298;-77
2021/09/05 01:44:20;;;;;;;14.00;12.10;;;;;;;;;;5067617;28;20282;-77
2021/09/05 01:46:47;;;;;;;12.27;10.97;;;;;;;;;;5066679;28;20291;-77
2021/09/05 01:49:14;;;;;;;12.67;11.37;;;;;;;;;;5070401;28;20581;-76
2021/09/05 01:51:41;;;;;;;13.83;12.30;;;;;;;;;;5062232;28;20283;-77
2021/09/05 01:54:09;;;;;;;12.83;11.53;;;;;;;;;;5071163;28;20226;-77
2021/09/05 01:56:36;;;;;;;12.03;10.80;;;;;;;;;;5069998;28;20282;-77
2021/09/05 01:59:05;;;;;;;13.27;11.73;;;;;;;;;;5072619;28;20313;-77
2021/09/05 02:01:34;;;;;;;12.43;11.23;;;;;;;;;;5061967;28;20233;-77
2021/09/05 02:04:02;;;;;;;12.47;11.17;;;;;;;;;;5060535;28;20318;-77
2021/09/05 02:06:30;;;;;;;12.90;11.67;;;;;;;;;;5054227;28;20235;-77
2021/09/05 02:08:57;;;;;;;13.13;11.77;;;;;;;;;;5061253;28;20279;-77
2021/09/05 02:11:24;;;;;;;12.43;11.23;;;;;;;;;;5069743;28;20286;-77
2021/09/05 02:13:52;;;;;;;13.63;12.23;;;;;;;;;;5071416;28;20286;-77
2021/09/05 02:16:19;;;;;;;12.00;10.60;;;;;;;;;;5063954;28;20249;-77
2021/09/05 02:18:48;;;;;;;12.57;11.30;;;;;;;;;;5058628;28;20302;-77
2021/09/05 02:21:15;;;;;;;13.20;11.03;;;;;;;;;;5053544;28;20278;-77
2021/09/05 02:23:43;;;;;;;12.80;11.23;;;;;;;;;;5053436;28;20294;-77
2021/09/05 02:26:10;;;;;;;15.13;11.90;;;;;;;;;;5053269;28;20210;-77
2021/09/05 02:28:37;;;;;;;14.47;11.33;;;;;;;;;;5056258;28;20640;-77
2021/09/05 02:31:05;;;;;;;14.23;12.17;;;;;;;;;;5065229;28;20279;-77
2021/09/05 02:33:32;;;;;;;15.87;13.37;;;;;;;;;;5053564;28;20283;-77
2021/09/05 02:36:01;;;;;;;16.30;12.57;;;;;;;;;;5053633;28;20200;-76
2021/09/05 02:38:28;;;;;;;14.17;12.77;;;;;;;;;;5058824;28;20729;-77
2021/09/05 02:40:55;;;;;;;15.40;12.43;;;;;;;;;;5052814;28;20715;-77
2021/09/05 02:43:23;;;;;;;14.23;12.33;;;;;;;;;;5068087;28;20512;-77
2021/09/05 02:45:50;;;;;;;14.70;12.57;;;;;;;;;;5057425;28;20634;-77
2021/09/05 02:48:18;;;;;;;13.30;12.00;;;;;;;;;;5072085;28;20625;-77
2021/09/05 02:50:45;;;;;;;13.37;12.00;;;;;;;;;;5058844;28;20712;-77
2021/09/05 02:53:14;;;;;;;13.57;12.17;;;;;;;;;;5053945;28;20294;-77
2021/09/05 02:55:41;;;;;;;13.13;11.73;;;;;;;;;;5056515;28;20286;-77
2021/09/05 02:58:08;;;;;;;16.33;12.43;;;;;;;;;;5071907;28;20265;-77
2021/09/05 03:00:35;;;;;;;14.57;12.20;;;;;;;;;;5062194;28;20278;-77
2021/09/05 03:03:02;;;;;;;13.67;12.23;;;;;;;;;;5066618;28;20223;-77
2021/09/05 03:05:29;;;;;;;14.50;12.50;;;;;;;;;;5052980;28;20339;-77
2021/09/05 03:07:56;;;;;;;13.63;11.33;;;;;;;;;;5052389;28;20202;-77
2021/09/05 03:10:25;;;;;;;13.17;11.23;;;;;;;;;;5058950;28;20218;-76
2021/09/05 03:12:52;;;;;;;13.87;12.10;;;;;;;;;;5059219;28;20238;-76
2021/09/05 03:15:20;;;;;;;13.17;11.60;;;;;;;;;;5053673;28;20235;-76
2021/09/05 03:17:47;;;;;;;13.57;11.83;;;;;;;;;;5060021;28;20224;-76
2021/09/05 03:20:14;;;;;;;13.17;11.83;;;;;;;;;;5053142;28;20566;-77
2021/09/05 03:22:41;;;;;;;13.10;11.70;;;;;;;;;;5060157;28;20274;-76
2021/09/05 03:25:09;;;;;;;12.80;11.33;;;;;;;;;;5061675;28;20202;-76
2021/09/05 03:27:38;;;;;;;13.43;11.23;;;;;;;;;;5064478;28;20286;-77
2021/09/05 03:30:05;;;;;;;14.53;11.90;;;;;;;;;;5068544;28;20707;-77
2021/09/05 03:32:33;;;;;;;13.83;11.63;;;;;;;;;;5057308;28;20250;-77
2021/09/05 03:35:00;;;;;;;13.50;11.17;;;;;;;;;;5053461;28;20287;-77
2021/09/05 03:37:27;;;;;;;14.03;11.80;;;;;;;;;;5050756;28;20279;-77
2021/09/05 03:39:54;;;;;;;17.10;12.60;;;;;;;;;;5052153;28;20414;-76
2021/09/05 03:42:21;;;;;;;13.63;11.43;;;;;;;;;;5057450;28;20206;-77
2021/09/05 03:44:50;;;;;;;14.60;11.43;;;;;;;;;;5056892;28;20861;-76
2021/09/05 03:47:17;;;;;;;13.33;11.27;;;;;;;;;;5052120;28;20206;-77
2021/09/05 03:49:44;;;;;;;14.57;11.93;;;;;;;;;;5062892;28;20199;-77
2021/09/05 03:52:13;;;;;;;13.17;11.77;;;;;;;;;;5069601;28;20249;-76
2021/09/05 03:54:40;;;;;;;14.27;12.63;;;;;;;;;;5071294;28;20643;-76
2021/09/05 03:57:07;;;;;;;14.03;11.83;;;;;;;;;;5068823;28;20297;-77
2021/09/05 03:59:34;;;;;;;14.97;11.57;;;;;;;;;;5070239;28;20301;-77
2021/09/05 04:02:03;;;;;;;15.23;11.77;;;;;;;;;;5066106;28;20257;-76
2021/09/05 04:04:30;;;;;;;17.67;12.17;;;;;;;;;;5060672;28;20311;-76
2021/09/05 04:07:01;;;;;;;12.80;11.50;;;;;;;;;;5060646;28;20235;-77
2021/09/05 04:12:14;;;;;;;15.13;12.73;;;;;;;;;;5057436;28;20195;-77
2021/09/05 04:14:41;;;;;;;12.63;11.10;;;;;;;;;;5055400;28;20286;-77
2021/09/05 04:17:10;;;;;;;13.37;11.63;;;;;;;;;;5061795;28;20686;-76
2021/09/05 04:19:37;;;;;;;12.73;11.17;;;;;;;;;;5052057;28;20219;-77
2021/09/05 04:22:05;;;;;;;13.90;11.63;;;;;;;;;;5058839;28;20308;-77
2021/09/05 04:24:32;;;;;;;12.63;11.00;;;;;;;;;;5057241;28;20199;-77
2021/09/05 04:26:59;;;;;;;12.40;11.10;;;;;;;;;;5069295;28;20235;-76
2021/09/05 04:29:26;;;;;;;12.37;11.03;;;;;;;;;;5075064;28;20625;-76
2021/09/05 04:31:54;;;;;;;12.40;10.17;;;;;;;;;;5061993;28;20691;-76
2021/09/05 04:34:22;;;;;;;12.57;10.47;;;;;;;;;;5058534;28;20205;-77
2021/09/05 04:36:49;;;;;;;13.00;10.43;;;;;;;;;;5061498;28;20287;-77
2021/09/05 04:39:17;;;;;;;12.17;10.07;;;;;;;;;;5062341;28;20211;-77
2021/09/05 04:41:45;;;;;;;12.90;10.40;;;;;;;;;;5066420;28;20294;-77
2021/09/05 04:44:13;;;;;;;11.53;9.50;;;;;;;;;;5062503;28;20191;-76
2021/09/05 04:46:42;;;;;;;11.13;9.97;;;;;;;;;;5070300;28;20245;-76
2021/09/05 04:49:09;;;;;;;10.97;9.47;;;;;;;;;;5060077;28;20277;-77
2021/09/05 04:51:38;;;;;;;11.00;9.87;;;;;;;;;;5067953;28;20287;-76
2021/09/05 04:54:05;;;;;;;11.90;10.73;;;;;;;;;;5060949;28;20634;-77
2021/09/05 04:56:32;;;;;;;11.57;10.07;;;;;;;;;;5054211;28;20202;-77
2021/09/05 04:59:00;;;;;;;12.03;10.60;;;;;;;;;;5053431;28;20258;-76
2021/09/05 05:01:27;;;;;;;12.00;10.80;;;;;;;;;;5053113;28;20291;-77
2021/09/05 05:03:54;;;;;;;11.47;10.27;;;;;;;;;;5053754;28;20310;-77
2021/09/05 05:06:21;;;;;;;12.37;10.70;;;;;;;;;;5060665;28;20287;-76
2021/09/05 05:08:50;;;;;;;13.50;11.63;;;;;;;;;;5054488;28;20283;-76
2021/09/05 05:11:19;;;;;;;13.07;11.57;;;;;;;;;;5054920;28;20282;-77
2021/09/05 05:13:49;;;;;;;15.53;12.83;;;;;;;;;;5072075;28;20210;-76
2021/09/05 05:16:18;;;;;;;16.63;13.43;;;;;;;;;;5062622;28;20249;-76
2021/09/05 05:18:48;;;;;;;18.63;13.93;;;;;;;;;;5068946;28;20301;-76
2021/09/05 05:21:17;;;;;;;19.23;14.13;;;;;;;;;;5059298;28;20279;-76
2021/09/05 05:23:46;;;;;;;20.73;14.53;;;;;;;;;;5065157;28;20282;-77
2021/09/05 05:26:17;;;;;;;19.10;14.97;;;;;;;;;;5074380;28;20289;-76
2021/09/05 05:28:46;;;;;;;23.67;14.80;;;;;;;;;;5073846;28;20287;-76
2021/09/05 05:31:15;;;;;;;25.53;15.50;;;;;;;;;;5071127;28;20231;-76
2021/09/05 05:33:45;;;;;;;22.80;15.03;;;;;;;;;;5059993;28;20235;-76
2021/09/05 05:36:14;;;;;;;33.63;14.53;;;;;;;;;;5053988;28;20282;-76
2021/09/05 05:38:43;;;;;;;21.03;14.43;;;;;;;;;;5059646;28;20286;-76
2021/09/05 05:41:15;;;;;;;20.57;14.67;;;;;;;;;;5059352;28;20286;-76
2021/09/05 05:43:45;;;;;;;18.17;14.33;;;;;;;;;;5066049;28;20244;-76
2021/09/05 05:46:15;;;;;;;18.80;14.30;;;;;;;;;;5073517;28;20370;-76
2021/09/05 05:48:44;;;;;;;20.83;14.43;;;;;;;;;;5055054;28;20214;-76
2021/09/05 05:51:13;;;;;;;14.67;12.17;;;;;;;;;;5061683;28;20279;-77
2021/09/05 05:53:42;;;;;;;14.53;12.53;;;;;;;;;;5069944;28;20299;-77
2021/09/05 05:56:12;;;;;;;15.90;13.43;;;;;;;;;;5068187;28;20283;-77
2021/09/05 05:58:42;;;;;;;14.70;13.00;;;;;;;;;;5067799;28;20199;-77
2021/09/05 06:01:12;;;;;;;14.23;12.73;;;;;;;;;;5053089;28;20311;-77
2021/09/05 06:03:42;;;;;;;14.27;12.60;;;;;;;;;;5052433;28;20231;-77
2021/09/05 06:06:11;;;;;;;14.37;12.87;;;;;;;;;;5053411;28;20291;-77
2021/09/05 06:08:40;;;;;;;13.50;12.10;;;;;;;;;;5053165;28;20238;-77
2021/09/05 06:11:10;;;;;;;13.63;12.33;;;;;;;;;;5052052;28;20636;-77
2021/09/05 06:13:39;;;;;;;14.03;12.63;;;;;;;;;;5057798;28;20226;-77
2021/09/05 06:16:09;;;;;;;12.27;11.07;;;;;;;;;;5067850;28;20239;-77
2021/09/05 06:18:40;;;;;;;12.10;10.73;;;;;;;;;;5053860;28;20287;-77
2021/09/05 06:21:09;;;;;;;12.10;10.90;;;;;;;;;;5056958;28;20265;-77
2021/09/05 06:23:39;;;;;;;11.70;10.60;;;;;;;;;;5061453;28;20279;-77
2021/09/05 06:26:08;;;;;;;12.33;10.70;;;;;;;;;;5053342;28;20204;-77
2021/09/05 06:28:38;;;;;;;13.17;11.87;;;;;;;;;;5073074;28;20238;-77
2021/09/05 06:31:05;;;;;;;13.20;11.80;;;;;;;;;;5072130;28;20199;-77
2021/09/05 06:33:34;;;;;;;12.50;11.10;;;;;;;;;;5067101;28;20283;-77
2021/09/05 06:36:05;;;;;;;11.63;10.43;;;;;;;;;;5065742;28;20690;-77
2021/09/05 06:38:34;;;;;;;10.73;9.73;;;;;;;;;;5056504;28;20235;-77
2021/09/05 06:41:02;;;;;;;11.27;10.23;;;;;;;;;;5068270;28;20303;-77
2021/09/05 06:43:29;;;;;;;10.10;9.30;;;;;;;;;;5061458;28;20286;-78
2021/09/05 06:45:56;;;;;;;9.60;8.70;;;;;;;;;;5069774;28;20238;-78
2021/09/05 06:48:23;;;;;;;8.48;7.78;;;;;;;;;;5054684;28;20286;-77
2021/09/05 06:50:50;;;;;;;7.45;6.75;;;;;;;;;;5064234;28;20287;-77
2021/09/05 06:53:19;;;;;;;7.70;7.00;;;;;;;;;;5060801;28;20195;-78
2021/09/05 06:55:46;;;;;;;8.43;7.65;;;;;;;;;;5060735;28;20232;-77
2021/09/05 06:58:13;;;;;;;8.32;7.63;;;;;;;;;;5052608;28;20242;-78
2021/09/05 07:00:40;;;;;;;8.27;7.57;;;;;;;;;;5060875;28;20303;-79
2021/09/05 07:03:07;;;;;;;6.88;6.28;;;;;;;;;;5054974;28;20307;-77
2021/09/05 07:05:35;;;;;;;7.40;6.80;;;;;;;;;;5062798;28;20230;-79
2021/09/05 07:08:02;;;;;;;7.03;6.45;;;;;;;;;;5071881;28;20198;-78
2021/09/05 07:10:30;;;;;;;7.60;7.00;;;;;;;;;;5053724;28;20284;-76
2021/09/05 07:12:58;;;;;;;7.18;6.47;;;;;;;;;;5060083;28;20287;-77
2021/09/05 07:15:25;;;;;;;8.02;7.22;;;;;;;;;;5066797;28;20223;-78
2021/09/05 07:17:52;;;;;;;10.57;7.05;;;;;;;;;;5056159;28;20286;-78
2021/09/05 07:20:19;;;;;;;7.78;7.03;;;;;;;;;;5058485;28;20716;-78
2021/09/05 07:22:46;;;;;;;7.38;6.78;;;;;;;;;;5060515;28;20231;-78
2021/09/05 07:25:14;;;;;;;7.40;6.70;;;;;;;;;;5055112;28;20898;-78
2021/09/05 07:27:42;;;;;;;8.23;7.43;;;;;;;;;;5056304;28;20688;-78
2021/09/05 07:30:10;;;;;;;9.52;8.63;;;;;;;;;;5058662;28;20286;-77
2021/09/05 07:32:38;;;;;;;10.27;7.70;;;;;;;;;;5060329;28;20554;-78
2021/09/05 07:35:05;;;;;;;9.60;8.57;;;;;;;;;;5054351;28;20238;-78
2021/09/05 07:37:32;;;;;;;9.90;9.05;;;;;;;;;;5059025;28;20219;-77
2021/09/05 07:40:00;;;;;;;8.98;8.23;;;;;;;;;;5057005;28;20235;-77
2021/09/05 07:42:27;;;;;;;9.57;8.77;;;;;;;;;;5060920;28;20255;-77
2021/09/05 07:44:58;;;;;;;10.23;9.32;;;;;;;;;;5066564;28;20282;-77
2021/09/05 07:47:25;;;;;;;10.23;8.85;;;;;;;;;;5058989;28;20196;-78
2021/09/05 07:49:52;;;;;;;10.52;9.43;;;;;;;;;;5063524;28;20627;-77
2021/09/05 07:52:19;;;;;;;10.48;9.55;;;;;;;;;;5050413;28;20651;-77
2021/09/05 07:54:46;;;;;;;10.38;9.48;;;;;;;;;;5056803;28;20299;-77
2021/09/05 07:57:14;;;;;;;10.45;9.45;;;;;;;;;;5059966;28;20294;-78
2021/09/05 07:59:41;;;;;;;10.98;9.80;;;;;;;;;;5061886;28;20274;-77
2021/09/05 08:02:09;;;;;;;10.75;9.75;;;;;;;;;;5065422;28;20226;-77
2021/09/05 08:04:36;;;;;;;10.93;10.00;;;;;;;;;;5063426;28;20269;-78
2021/09/05 08:07:04;;;;;;;11.68;10.52;;;;;;;;;;5059242;28;20196;-78
2021/09/05 08:09:31;;;;;;;12.23;11.07;;;;;;;;;;5055950;28;20286;-79
2021/09/05 08:11:58;;;;;;;13.25;11.95;;;;;;;;;;5055311;28;20195;-80
2021/09/05 08:14:25;;;;;;;11.68;10.57;;;;;;;;;;5055169;28;20278;-79
2021/09/05 08:16:53;;;;;;;12.85;11.55;;;;;;;;;;5055134;28;20291;-78
2021/09/05 08:19:21;;;;;;;12.68;11.25;;;;;;;;;;5064057;28;20198;-79
2021/09/05 08:21:48;;;;;;;12.35;10.98;;;;;;;;;;5056730;28;20306;-78
2021/09/05 08:24:15;;;;;;;12.57;11.43;;;;;;;;;;5069374;28;20311;-79
2021/09/05 08:26:43;;;;;;;13.27;12.05;;;;;;;;;;5060963;28;20287;-77
2021/09/05 08:29:10;;;;;;;14.05;12.65;;;;;;;;;;5055086;28;20759;-79
2021/09/05 08:31:37;;;;;;;13.93;12.52;;;;;;;;;;5067474;28;20651;-78
2021/09/05 08:34:05;;;;;;;15.02;13.52;;;;;;;;;;5060920;28;20295;-77
2021/09/05 08:36:34;;;;;;;14.85;13.35;;;;;;;;;;5069417;28;20195;-77
2021/09/05 08:39:01;;;;;;;14.13;12.70;;;;;;;;;;5060991;28;20250;-77
2021/09/05 08:41:29;;;;;;;13.80;12.43;;;;;;;;;;5071890;28;20265;-76
2021/09/05 08:43:57;;;;;;;15.13;13.70;;;;;;;;;;5064901;28;20285;-77
2021/09/05 08:46:24;;;;;;;16.52;14.40;;;;;;;;;;5063245;28;20203;-76
2021/09/05 08:48:54;;;;;;;16.27;13.00;;;;;;;;;;5055021;28;20202;-77
2021/09/05 08:51:21;;;;;;;16.30;14.60;;;;;;;;;;5066394;28;20204;-77
2021/09/05 08:53:50;;;;;;;15.55;13.93;;;;;;;;;;5074081;28;20667;-77
2021/09/05 08:56:17;;;;;;;16.20;14.55;;;;;;;;;;5072095;28;20289;-77
2021/09/05 08:58:44;;;;;;;15.93;14.32;;;;;;;;;;5067466;28;20287;-77
2021/09/05 09:01:19;;;;;;;16.45;14.40;;;;;;;;;;5054855;28;20254;-77
2021/09/05 09:03:46;;;;;;;17.02;15.32;;;;;;;;;;5053639;28;20863;-77
2021/09/05 09:06:18;;;;;;;18.63;14.55;;;;;;;;;;5074544;28;20281;-77
2021/09/05 09:08:55;;;;;;;15.90;14.20;;;;;;;;;;5072605;28;20199;-77
2021/09/05 09:11:23;;;;;;;14.88;13.38;;;;;;;;;;5052629;28;20199;-77
2021/09/05 09:13:55;;;;;;;16.00;14.35;;;;;;;;;;5054175;28;20283;-77
2021/09/05 09:16:23;;;;;;;15.55;13.95;;;;;;;;;;5053626;28;20204;-77
2021/09/05 09:18:54;;;;;;;14.90;13.18;;;;;;;;;;5052903;28;20214;-77
2021/09/05 09:21:21;;;;;;;13.15;11.65;;;;;;;;;;5053973;28;20219;-77
2021/09/05 09:23:51;;;;;;;13.57;12.00;;;;;;;;;;5063177;28;20698;-77
2021/09/05 09:26:18;;;;;;;14.23;12.73;;;;;;;;;;5062635;28;20200;-77
2021/09/05 09:28:48;;;;;;;13.32;11.93;;;;;;;;;;5053844;28;20199;-74
2021/09/05 09:31:16;;;;;;;12.13;10.93;;;;;;;;;;5058832;28;20278;-75
2021/09/05 09:33:44;;;;;;;13.38;11.98;;;;;;;;;;5053525;28;20667;-77
2021/09/05 09:36:14;;;;;;;13.10;11.80;;;;;;;;;;5054170;28;20295;-77
2021/09/05 09:38:43;;;;;;;11.55;10.35;;;;;;;;;;5067767;28;20241;-77
2021/09/05 09:41:12;;;;;;;11.80;10.63;;;;;;;;;;5073437;28;20230;-77
2021/09/05 09:43:51;;;;;;;7.55;6.60;;;;;;;;;;5071950;28;20286;-77
2021/09/05 09:46:19;;;;;;;6.82;6.22;;;;;;;;;;5060769;28;20285;-77
2021/09/05 09:48:47;;;;;;;7.50;6.70;;;;;;;;;;5054602;28;20282;-77
2021/09/05 09:51:14;;;;;;;6.22;5.25;;;;;;;;;;5067456;28;20226;-77
2021/09/05 09:53:42;;;;;;;5.10;4.70;;;;;;;;;;5073890;28;20230;-78
2021/09/05 09:56:10;;;;;;;5.70;5.03;;;;;;;;;;5073818;28;20290;-78
2021/09/05 09:58:38;;;;;;;5.40;4.93;;;;;;;;;;5072335;28;20222;-75
2021/09/05 10:01:06;;;;;;;5.72;5.22;;;;;;;;;;5073645;28;20260;-77
2021/09/05 10:03:34;;;;;;;5.70;5.20;;;;;;;;;;5065764;28;20298;-77
2021/09/05 10:06:01;;;;;;;5.70;5.20;;;;;;;;;;5068329;28;20289;-77
2021/09/05 10:08:29;;;;;;;5.60;5.00;;;;;;;;;;5072266;28;20198;-77
2021/09/05 10:10:59;;;;;;;5.55;4.85;;;;;;;;;;5063897;28;20237;-78
2021/09/05 10:13:27;;;;;;;4.60;4.20;;;;;;;;;;5053671;28;20203;-77
2021/09/05 10:15:55;;;;;;;4.38;3.97;;;;;;;;;;5053845;28;20291;-78
2021/09/05 10:18:23;;;;;;;4.88;4.43;;;;;;;;;;5053512;28;20287;-78
2021/09/05 10:20:51;;;;;;;5.47;4.60;;;;;;;;;;5071510;28;20194;-77
2021/09/05 10:23:26;;;;;;;4.93;4.18;;;;;;;;;;5052723;28;20810;-78
2021/09/05 10:25:53;;;;;;;5.28;4.70;;;;;;;;;;5054663;28;20230;-77
2021/09/05 10:28:33;;;;;;;6.28;5.68;;;;;;;;;;5058807;28;20390;-77
2021/09/05 10:31:00;;;;;;;5.43;4.93;;;;;;;;;;5072529;28;20618;-77
2021/09/05 10:33:33;;;;;;;5.65;5.15;;;;;;;;;;5067461;28;20291;-77
2021/09/05 10:36:07;;;;;;;5.65;5.10;;;;;;;;;;5053589;28;20206;-77
2021/09/05 10:38:35;;;;;;;5.88;5.25;;;;;;;;;;5054660;28;20675;-77
2021/09/05 10:41:04;;;;;;;5.72;5.20;;;;;;;;;;5053455;28;20199;-77
2021/09/05 10:43:53;;;;;;;5.55;5.05;;;;;;;;;;5071105;28;20198;-78
2021/09/05 10:46:21;;;;;;;5.10;4.70;;;;;;;;;;5067098;28;20290;-78
2021/09/05 10:48:50;;;;;;;5.13;4.65;;;;;;;;;;5073187;28;20692;-78
2021/09/05 10:51:19;;;;;;;5.63;5.07;;;;;;;;;;5062442;28;20207;-78
2021/09/05 10:53:53;;;;;;;5.28;4.72;;;;;;;;;;5064235;28;20776;-78
2021/09/05 10:56:22;;;;;;;6.43;5.75;;;;;;;;;;5064061;28;20282;-78
2021/09/05 10:58:50;;;;;;;7.10;4.70;;;;;;;;;;5053152;28;20249;-77
2021/09/05 11:01:25;;;;;;;5.22;4.78;;;;;;;;;;5052560;28;20771;-77
2021/09/05 11:04:11;;;;;;;5.38;4.88;;;;;;;;;;5052924;28;20203;-78
2021/09/05 11:06:40;;;;;;;5.25;4.68;;;;;;;;;;5059346;28;20294;-77
2021/09/05 11:09:27;;;;;;;4.80;4.40;;;;;;;;;;5052785;28;20211;-78
2021/09/05 11:11:55;;;;;;;5.60;5.10;;;;;;;;;;5052789;28;20262;-77
2021/09/05 11:14:48;;;;;;;5.45;4.95;;;;;;;;;;5051923;28;20200;-78
2021/09/05 11:17:17;;;;;;;6.00;4.95;;;;;;;;;;5052406;28;20205;-77
2021/09/05 11:19:45;;;;;;;5.13;4.68;;;;;;;;;;5071486;28;20679;-78
2021/09/05 11:22:13;;;;;;;5.30;4.80;;;;;;;;;;5072602;28;20285;-77
2021/09/05 11:24:41;;;;;;;5.50;5.00;;;;;;;;;;5061035;28;20694;-77
2021/09/05 11:27:10;;;;;;;5.75;5.15;;;;;;;;;;5052913;28;20286;-77
2021/09/05 11:29:38;;;;;;;5.55;4.82;;;;;;;;;;5053988;28;20290;-77
2021/09/05 11:32:06;;;;;;;5.80;5.30;;;;;;;;;;5057493;28;20221;-77
2021/09/05 11:34:33;;;;;;;5.70;5.05;;;;;;;;;;5057060;28;20195;-77
2021/09/05 11:37:00;;;;;;;6.18;4.95;;;;;;;;;;5051771;28;20580;-77
2021/09/05 11:39:29;;;;;;;6.95;4.90;;;;;;;;;;5058337;28;20290;-77
2021/09/05 11:41:57;;;;;;;6.80;5.38;;;;;;;;;;5069144;28;20242;-76
2021/09/05 11:44:31;;;;;;;5.47;5.07;;;;;;;;;;5067769;28;20668;-77
2021/09/05 11:47:08;;;;;;;6.78;5.03;;;;;;;;;;5051609;28;20974;-77
2021/09/05 11:49:35;;;;;;;5.60;5.03;;;;;;;;;;5065099;28;20206;-77
2021/09/05 11:52:03;;;;;;;5.70;5.20;;;;;;;;;;5056484;28;20225;-77
2021/09/05 11:54:32;;;;;;;5.55;4.90;;;;;;;;;;5071171;28;20203;-77
2021/09/05 11:56:59;;;;;;;7.90;5.20;;;;;;;;;;5071073;28;20293;-77
2021/09/05 11:59:26;;;;;;;6.32;4.95;;;;;;;;;;5061424;28;20238;-77
2021/09/05 12:01:54;;;;;;;6.55;5.35;;;;;;;;;;5071524;28;20298;-77
2021/09/05 12:04:22;;;;;;;5.90;5.32;;;;;;;;;;5069885;28;20288;-77
2021/09/05 12:06:49;;;;;;;5.70;5.20;;;;;;;;;;5064697;28;20286;-77
2021/09/05 12:09:26;;;;;;;5.70;5.07;;;;;;;;;;5050809;28;20312;-77
2021/09/05 12:11:59;;;;;;;6.38;5.78;;;;;;;;;;5051156;28;20230;-77
2021/09/05 12:14:30;;;;;;;5.90;5.30;;;;;;;;;;5052991;28;20613;-76
2021/09/05 12:16:57;;;;;;;5.28;4.80;;;;;;;;;;5052026;28;20626;-77
2021/09/05 12:19:24;;;;;;;5.68;5.18;;;;;;;;;;5058232;28;20277;-77
2021/09/05 12:21:57;;;;;;;5.90;5.30;;;;;;;;;;5070008;28;20213;-77
2021/09/05 12:24:24;;;;;;;5.68;5.00;;;;;;;;;;5069893;28;20206;-77
2021/09/05 12:26:52;;;;;;;6.45;5.30;;;;;;;;;;5051422;28;20219;-77
2021/09/05 12:29:30;;;;;;;6.43;4.97;;;;;;;;;;5051144;28;20668;-77
2021/09/05 12:32:02;;;;;;;7.20;6.50;;;;;;;;;;5060828;28;20215;-77
2021/09/05 12:34:39;;;;;;;5.47;4.97;;;;;;;;;;5066903;28;20199;-77
2021/09/05 12:37:13;;;;;;;6.88;6.25;;;;;;;;;;5061320;28;20286;-77
2021/09/05 12:39:41;;;;;;;5.80;5.28;;;;;;;;;;5058830;28;20286;-77
2021/09/05 12:42:09;;;;;;;6.32;5.70;;;;;;;;;;5062240;28;20303;-77
2021/09/05 12:44:44;;;;;;;9.43;7.30;;;;;;;;;;5060257;28;20275;-77
2021/09/05 12:47:11;;;;;;;7.93;6.50;;;;;;;;;;5055332;28;20238;-76
2021/09/05 12:49:40;;;;;;;6.22;5.65;;;;;;;;;;5057312;28;20199;-76
2021/09/05 12:52:08;;;;;;;6.35;5.03;;;;;;;;;;5056424;28;20227;-77
2021/09/05 12:54:39;;;;;;;7.25;5.13;;;;;;;;;;5063632;28;20196;-77
2021/09/05 12:57:07;;;;;;;5.50;5.00;;;;;;;;;;5066103;28;20223;-76
2021/09/05 12:59:34;;;;;;;6.25;4.90;;;;;;;;;;5071353;28;20195;-76
2021/09/05 13:02:03;;;;;;;5.82;5.25;;;;;;;;;;5060286;28;20648;-77
2021/09/05 13:04:30;;;;;;;5.65;5.15;;;;;;;;;;5061475;28;20621;-76
2021/09/05 13:06:58;;;;;;;5.57;5.00;;;;;;;;;;5069525;28;20226;-76
2021/09/05 13:09:25;;;;;;;6.05;5.20;;;;;;;;;;5070414;28;20754;-77
2021/09/05 13:11:52;;;;;;;4.93;4.47;;;;;;;;;;5059416;28;20290;-77
2021/09/05 13:14:20;;;;;;;5.28;4.78;;;;;;;;;;5063527;28;20242;-77
2021/09/05 13:16:47;;;;;;;5.57;5.07;;;;;;;;;;5072086;28;20363;-76
2021/09/05 13:19:16;;;;;;;5.50;5.00;;;;;;;;;;5070988;28;20286;-77
2021/09/05 13:21:43;;;;;;;6.85;4.85;;;;;;;;;;5074232;28;20230;-77
2021/09/05 13:24:10;;;;;;;5.20;4.65;;;;;;;;;;5063631;28;20196;-77
2021/09/05 13:26:37;;;;;;;6.10;5.10;;;;;;;;;;5054244;28;20287;-76
2021/09/05 13:29:05;;;;;;;5.28;4.80;;;;;;;;;;5062960;28;20227;-76
2021/09/05 13:31:33;;;;;;;6.55;4.80;;;;;;;;;;5061177;28;20227;-77
2021/09/05 13:34:00;;;;;;;5.82;5.22;;;;;;;;;;5069998;28;20219;-76
2021/09/05 13:36:29;;;;;;;5.50;5.00;;;;;;;;;;5065944;28;20239;-77
2021/09/05 13:38:57;;;;;;;5.47;4.97;;;;;;;;;;5063932;28;20290;-77
2021/09/05 13:41:24;;;;;;;5.38;4.88;;;;;;;;;;5061532;28;20282;-77
2021/09/05 13:43:51;;;;;;;4.90;4.50;;;;;;;;;;5065498;28;20286;-77
2021/09/05 13:46:18;;;;;;;6.35;4.82;;;;;;;;;;5073561;28;20362;-77
2021/09/05 13:48:46;;;;;;;5.13;4.63;;;;;;;;;;5065533;28;20290;-77
2021/09/05 13:51:13;;;;;;;5.88;5.00;;;;;;;;;;5054002;28;20287;-77
2021/09/05 13:53:42;;;;;;;5.38;4.88;;;;;;;;;;5061342;28;20354;-76
2021/09/05 13:56:09;;;;;;;6.53;5.10;;;;;;;;;;5055426;28;20254;-77
2021/09/05 13:58:36;;;;;;;5.38;4.90;;;;;;;;;;5053571;28;20231;-77
2021/09/05 14:01:04;;;;;;;5.20;4.80;;;;;;;;;;5053674;28;20231;-77
2021/09/05 14:03:31;;;;;;;5.35;4.90;;;;;;;;;;5056997;28;20302;-77
2021/09/05 14:05:58;;;;;;;5.25;4.85;;;;;;;;;;5073023;28;20332;-77
2021/09/05 14:08:25;;;;;;;5.93;5.32;;;;;;;;;;5073086;28;20230;-76
2021/09/05 14:10:54;;;;;;;5.65;5.05;;;;;;;;;;5072809;28;20640;-76
2021/09/05 14:13:21;;;;;;;6.35;5.18;;;;;;;;;;5073249;28;20316;-78
2021/09/05 14:15:48;;;;;;;5.55;5.00;;;;;;;;;;5073200;28;20291;-77
2021/09/05 14:18:16;;;;;;;5.72;5.22;;;;;;;;;;5072770;28;20294;-77
2021/09/05 14:20:43;;;;;;;7.25;4.93;;;;;;;;;;5062251;28;20699;-77
2021/09/05 14:23:11;;;;;;;5.93;5.38;;;;;;;;;;5056457;28;20287;-77
2021/09/05 14:25:39;;;;;;;6.30;5.07;;;;;;;;;;5057211;28;20295;-77
2021/09/05 14:28:08;;;;;;;5.45;4.60;;;;;;;;;;5072944;28;20286;-77
2021/09/05 14:30:41;;;;;;;4.78;4.38;;;;;;;;;;5072619;28;20205;-77
2021/09/05 14:50:02;;;;;;;4.88;4.47;;;;;;;;;;5010802;28;20316;-77
2021/09/05 14:55:13;;;;;;;5.00;4.50;;;;;;;;;;5010394;28;20302;-78
2021/09/05 14:57:41;;;;;;;5.10;4.60;;;;;;;;;;5021593;28;20292;-77